sensor_id;sensor_type;location;lat;lon;timestamp;P1;durP1;ratioP1;P2;durP2;ratioP2
27893;SDS011;15240;50.812;4.792;2023-05-24T00:02:07;18.53;;;4.63;;
27893;SDS011;15240;50.812;4.792;2023-05-24T00:04:37;14.13;;;4.20;;
27893;SDS011;15240;50.812;4.792;2023-05-24T00:07:04;23.03;;;5.07;;
27893;SDS011;15240;50.812;4.792;2023-05-24T00:09:30;15.43;;;3.90;;
27893;SDS011;15240;50.812;4.792;2023-05-24T00:11:56;17.53;;;4.03;;
27893;SDS011;15240;50.812;4.792;2023-05-24T00:14:23;13.67;;;3.90;;
27893;SDS011;15240;50.812;4.792;2023-05-24T00:16:50;12.17;;;4.10;;
27893;SDS011;15240;50.812;4.792;2023-05-24T00:19:17;18.10;;;4.53;;
27893;SDS011;15240;50.812;4.792;2023-05-24T00:21:46;18.23;;;4.60;;
27893;SDS011;15240;50.812;4.792;2023-05-24T00:24:13;18.20;;;4.20;;
27893;SDS011;15240;50.812;4.792;2023-05-24T00:26:41;15.77;;;4.47;;
27893;SDS011;15240;50.812;4.792;2023-05-24T00:29:07;18.77;;;4.30;;
27893;SDS011;15240;50.812;4.792;2023-05-24T00:31:34;15.40;;;4.27;;
27893;SDS011;15240;50.812;4.792;2023-05-24T00:34:00;20.13;;;4.93;;
27893;SDS011;15240;50.812;4.792;2023-05-24T00:36:26;17.90;;;4.37;;
27893;SDS011;15240;50.812;4.792;2023-05-24T00:38:52;23.17;;;4.80;;
27893;SDS011;15240;50.812;4.792;2023-05-24T00:41:19;18.73;;;4.40;;
27893;SDS011;15240;50.812;4.792;2023-05-24T00:43:47;18.03;;;4.97;;
27893;SDS011;15240;50.812;4.792;2023-05-24T00:46:15;13.17;;;4.43;;
27893;SDS011;15240;50.812;4.792;2023-05-24T00:48:41;18.90;;;4.60;;
27893;SDS011;15240;50.812;4.792;2023-05-24T00:51:07;17.27;;;4.60;;
27893;SDS011;15240;50.812;4.792;2023-05-24T00:53:34;16.60;;;4.70;;
27893;SDS011;15240;50.812;4.792;2023-05-24T00:56:04;16.73;;;4.40;;
27893;SDS011;15240;50.812;4.792;2023-05-24T00:58:30;18.13;;;4.97;;
27893;SDS011;15240;50.812;4.792;2023-05-24T01:00:57;13.73;;;4.67;;
27893;SDS011;15240;50.812;4.792;2023-05-24T01:03:25;17.33;;;4.70;;
27893;SDS011;15240;50.812;4.792;2023-05-24T01:05:54;20.03;;;5.27;;
27893;SDS011;15240;50.812;4.792;2023-05-24T01:08:26;13.67;;;4.90;;
27893;SDS011;15240;50.812;4.792;2023-05-24T01:10:58;17.43;;;4.90;;
27893;SDS011;15240;50.812;4.792;2023-05-24T01:13:52;16.47;;;5.20;;
27893;SDS011;15240;50.812;4.792;2023-05-24T01:18:40;21.83;;;5.10;;
27893;SDS011;15240;50.812;4.792;2023-05-24T01:28:55;18.03;;;5.53;;
27893;SDS011;15240;50.812;4.792;2023-05-24T01:31:21;20.97;;;5.83;;
27893;SDS011;15240;50.812;4.792;2023-05-24T01:33:47;19.17;;;5.37;;
27893;SDS011;15240;50.812;4.792;2023-05-24T01:36:14;18.03;;;5.70;;
27893;SDS011;15240;50.812;4.792;2023-05-24T01:38:40;18.03;;;6.00;;
27893;SDS011;15240;50.812;4.792;2023-05-24T01:43:46;21.30;;;6.10;;
27893;SDS011;15240;50.812;4.792;2023-05-24T01:46:21;22.87;;;6.30;;
27893;SDS011;15240;50.812;4.792;2023-05-24T01:51:58;21.97;;;6.40;;
27893;SDS011;15240;50.812;4.792;2023-05-24T01:54:27;18.43;;;5.63;;
27893;SDS011;15240;50.812;4.792;2023-05-24T01:56:57;27.13;;;6.80;;
27893;SDS011;15240;50.812;4.792;2023-05-24T01:59:25;23.43;;;6.67;;
27893;SDS011;15240;50.812;4.792;2023-05-24T02:01:53;21.17;;;6.33;;
27893;SDS011;15240;50.812;4.792;2023-05-24T02:04:19;18.90;;;6.40;;
27893;SDS011;15240;50.812;4.792;2023-05-24T02:06:46;22.33;;;7.63;;
27893;SDS011;15240;50.812;4.792;2023-05-24T02:09:12;26.70;;;6.40;;
27893;SDS011;15240;50.812;4.792;2023-05-24T02:11:40;19.17;;;6.77;;
27893;SDS011;15240;50.812;4.792;2023-05-24T02:14:06;20.73;;;6.37;;
27893;SDS011;15240;50.812;4.792;2023-05-24T02:16:35;21.03;;;6.63;;
27893;SDS011;15240;50.812;4.792;2023-05-24T02:19:07;27.97;;;6.63;;
27893;SDS011;15240;50.812;4.792;2023-05-24T02:21:33;20.27;;;6.90;;
27893;SDS011;15240;50.812;4.792;2023-05-24T02:24:00;23.87;;;7.20;;
27893;SDS011;15240;50.812;4.792;2023-05-24T02:26:27;26.03;;;7.43;;
27893;SDS011;15240;50.812;4.792;2023-05-24T02:28:54;21.77;;;7.07;;
27893;SDS011;15240;50.812;4.792;2023-05-24T02:31:21;22.43;;;6.93;;
27893;SDS011;15240;50.812;4.792;2023-05-24T02:33:47;21.47;;;6.43;;
27893;SDS011;15240;50.812;4.792;2023-05-24T02:36:14;28.20;;;7.50;;
27893;SDS011;15240;50.812;4.792;2023-05-24T02:38:40;25.50;;;7.33;;
27893;SDS011;15240;50.812;4.792;2023-05-24T02:41:08;25.30;;;7.57;;
27893;SDS011;15240;50.812;4.792;2023-05-24T02:43:35;22.90;;;7.30;;
27893;SDS011;15240;50.812;4.792;2023-05-24T02:46:01;22.17;;;7.30;;
27893;SDS011;15240;50.812;4.792;2023-05-24T02:48:28;20.10;;;6.60;;
27893;SDS011;15240;50.812;4.792;2023-05-24T02:50:54;22.07;;;7.87;;
27893;SDS011;15240;50.812;4.792;2023-05-24T02:53:20;17.70;;;7.00;;
27893;SDS011;15240;50.812;4.792;2023-05-24T02:55:49;19.17;;;7.13;;
27893;SDS011;15240;50.812;4.792;2023-05-24T02:58:15;19.83;;;6.80;;
27893;SDS011;15240;50.812;4.792;2023-05-24T03:00:42;21.47;;;7.37;;
27893;SDS011;15240;50.812;4.792;2023-05-24T03:03:09;23.47;;;7.03;;
27893;SDS011;15240;50.812;4.792;2023-05-24T03:05:35;18.20;;;7.30;;
27893;SDS011;15240;50.812;4.792;2023-05-24T03:08:01;17.77;;;7.30;;
27893;SDS011;15240;50.812;4.792;2023-05-24T03:10:28;18.33;;;6.43;;
27893;SDS011;15240;50.812;4.792;2023-05-24T03:12:54;21.23;;;7.10;;
27893;SDS011;15240;50.812;4.792;2023-05-24T03:15:20;19.13;;;7.17;;
27893;SDS011;15240;50.812;4.792;2023-05-24T03:17:46;21.57;;;6.50;;
27893;SDS011;15240;50.812;4.792;2023-05-24T03:20:12;18.47;;;7.10;;
27893;SDS011;15240;50.812;4.792;2023-05-24T03:22:39;19.10;;;6.43;;
27893;SDS011;15240;50.812;4.792;2023-05-24T03:25:06;15.83;;;6.37;;
27893;SDS011;15240;50.812;4.792;2023-05-24T03:27:34;22.53;;;7.60;;
27893;SDS011;15240;50.812;4.792;2023-05-24T03:30:01;14.97;;;5.97;;
27893;SDS011;15240;50.812;4.792;2023-05-24T03:32:28;17.87;;;6.70;;
27893;SDS011;15240;50.812;4.792;2023-05-24T03:34:54;24.63;;;7.53;;
27893;SDS011;15240;50.812;4.792;2023-05-24T03:37:24;21.00;;;6.67;;
27893;SDS011;15240;50.812;4.792;2023-05-24T03:39:51;21.30;;;7.70;;
27893;SDS011;15240;50.812;4.792;2023-05-24T03:42:17;20.37;;;8.00;;
27893;SDS011;15240;50.812;4.792;2023-05-24T03:44:43;19.77;;;7.57;;
27893;SDS011;15240;50.812;4.792;2023-05-24T03:47:09;19.33;;;7.77;;
27893;SDS011;15240;50.812;4.792;2023-05-24T03:49:37;30.53;;;9.20;;
27893;SDS011;15240;50.812;4.792;2023-05-24T03:52:03;27.87;;;8.43;;
27893;SDS011;15240;50.812;4.792;2023-05-24T03:54:30;22.40;;;8.50;;
27893;SDS011;15240;50.812;4.792;2023-05-24T03:56:56;25.87;;;8.40;;
27893;SDS011;15240;50.812;4.792;2023-05-24T03:59:22;28.23;;;9.83;;
27893;SDS011;15240;50.812;4.792;2023-05-24T04:01:48;25.40;;;9.50;;
27893;SDS011;15240;50.812;4.792;2023-05-24T04:04:14;31.00;;;10.37;;
27893;SDS011;15240;50.812;4.792;2023-05-24T04:06:40;28.87;;;9.20;;
27893;SDS011;15240;50.812;4.792;2023-05-24T04:09:06;26.23;;;9.53;;
27893;SDS011;15240;50.812;4.792;2023-05-24T04:11:34;23.63;;;8.87;;
27893;SDS011;15240;50.812;4.792;2023-05-24T04:14:02;25.63;;;8.70;;
27893;SDS011;15240;50.812;4.792;2023-05-24T04:16:28;26.73;;;8.93;;
27893;SDS011;15240;50.812;4.792;2023-05-24T04:18:59;26.23;;;9.17;;
27893;SDS011;15240;50.812;4.792;2023-05-24T04:21:27;25.40;;;8.60;;
27893;SDS011;15240;50.812;4.792;2023-05-24T04:23:53;23.43;;;9.17;;
27893;SDS011;15240;50.812;4.792;2023-05-24T04:26:20;26.33;;;9.70;;
27893;SDS011;15240;50.812;4.792;2023-05-24T04:28:46;29.60;;;9.00;;
27893;SDS011;15240;50.812;4.792;2023-05-24T04:31:14;27.27;;;9.60;;
27893;SDS011;15240;50.812;4.792;2023-05-24T04:33:40;27.17;;;10.47;;
27893;SDS011;15240;50.812;4.792;2023-05-24T04:36:08;26.67;;;10.17;;
27893;SDS011;15240;50.812;4.792;2023-05-24T04:38:35;26.37;;;10.43;;
27893;SDS011;15240;50.812;4.792;2023-05-24T04:41:03;25.13;;;9.43;;
27893;SDS011;15240;50.812;4.792;2023-05-24T04:43:29;34.30;;;11.10;;
27893;SDS011;15240;50.812;4.792;2023-05-24T04:45:57;22.67;;;9.37;;
27893;SDS011;15240;50.812;4.792;2023-05-24T04:48:24;24.03;;;9.87;;
27893;SDS011;15240;50.812;4.792;2023-05-24T04:50:50;25.13;;;9.63;;
27893;SDS011;15240;50.812;4.792;2023-05-24T04:53:17;23.97;;;9.30;;
27893;SDS011;15240;50.812;4.792;2023-05-24T04:55:43;32.40;;;9.53;;
27893;SDS011;15240;50.812;4.792;2023-05-24T04:58:10;22.50;;;9.43;;
27893;SDS011;15240;50.812;4.792;2023-05-24T05:00:37;24.37;;;9.90;;
27893;SDS011;15240;50.812;4.792;2023-05-24T05:03:04;26.60;;;10.33;;
27893;SDS011;15240;50.812;4.792;2023-05-24T05:05:30;25.93;;;10.03;;
27893;SDS011;15240;50.812;4.792;2023-05-24T05:07:56;25.40;;;9.43;;
27893;SDS011;15240;50.812;4.792;2023-05-24T05:10:22;21.67;;;9.57;;
27893;SDS011;15240;50.812;4.792;2023-05-24T05:12:48;22.90;;;10.57;;
27893;SDS011;15240;50.812;4.792;2023-05-24T05:15:14;29.27;;;9.07;;
27893;SDS011;15240;50.812;4.792;2023-05-24T05:17:40;23.90;;;9.70;;
27893;SDS011;15240;50.812;4.792;2023-05-24T05:20:06;23.73;;;8.77;;
27893;SDS011;15240;50.812;4.792;2023-05-24T05:22:34;27.70;;;9.13;;
27893;SDS011;15240;50.812;4.792;2023-05-24T05:25:00;22.37;;;8.53;;
27893;SDS011;15240;50.812;4.792;2023-05-24T05:27:26;22.83;;;8.13;;
27893;SDS011;15240;50.812;4.792;2023-05-24T05:29:52;23.70;;;8.00;;
27893;SDS011;15240;50.812;4.792;2023-05-24T05:32:18;22.13;;;7.60;;
27893;SDS011;15240;50.812;4.792;2023-05-24T05:34:44;22.93;;;7.77;;
27893;SDS011;15240;50.812;4.792;2023-05-24T05:37:12;25.23;;;8.33;;
27893;SDS011;15240;50.812;4.792;2023-05-24T05:39:38;22.43;;;8.47;;
27893;SDS011;15240;50.812;4.792;2023-05-24T05:42:05;22.70;;;7.70;;
27893;SDS011;15240;50.812;4.792;2023-05-24T05:44:32;21.87;;;8.23;;
27893;SDS011;15240;50.812;4.792;2023-05-24T05:46:59;23.90;;;7.43;;
27893;SDS011;15240;50.812;4.792;2023-05-24T05:49:25;21.00;;;7.03;;
27893;SDS011;15240;50.812;4.792;2023-05-24T05:51:51;25.77;;;7.47;;
27893;SDS011;15240;50.812;4.792;2023-05-24T05:54:18;26.77;;;7.60;;
27893;SDS011;15240;50.812;4.792;2023-05-24T05:56:44;20.13;;;7.03;;
27893;SDS011;15240;50.812;4.792;2023-05-24T05:59:12;19.67;;;6.87;;
27893;SDS011;15240;50.812;4.792;2023-05-24T06:01:38;20.20;;;6.30;;
27893;SDS011;15240;50.812;4.792;2023-05-24T06:04:05;17.67;;;5.80;;
27893;SDS011;15240;50.812;4.792;2023-05-24T06:06:31;16.20;;;5.37;;
27893;SDS011;15240;50.812;4.792;2023-05-24T06:08:58;16.90;;;5.57;;
27893;SDS011;15240;50.812;4.792;2023-05-24T06:11:24;17.37;;;5.40;;
27893;SDS011;15240;50.812;4.792;2023-05-24T06:13:55;13.87;;;4.87;;
27893;SDS011;15240;50.812;4.792;2023-05-24T06:16:26;12.33;;;4.87;;
27893;SDS011;15240;50.812;4.792;2023-05-24T06:18:56;15.23;;;5.47;;
27893;SDS011;15240;50.812;4.792;2023-05-24T06:21:23;20.57;;;5.03;;
27893;SDS011;15240;50.812;4.792;2023-05-24T06:24:42;19.27;;;5.07;;
27893;SDS011;15240;50.812;4.792;2023-05-24T06:27:30;15.03;;;4.33;;
27893;SDS011;15240;50.812;4.792;2023-05-24T06:30:38;15.17;;;4.43;;
27893;SDS011;15240;50.812;4.792;2023-05-24T06:33:31;15.00;;;4.10;;
27893;SDS011;15240;50.812;4.792;2023-05-24T06:36:22;14.70;;;4.33;;
27893;SDS011;15240;50.812;4.792;2023-05-24T06:38:52;14.33;;;3.73;;
27893;SDS011;15240;50.812;4.792;2023-05-24T06:41:41;12.63;;;3.80;;
27893;SDS011;15240;50.812;4.792;2023-05-24T06:44:11;18.10;;;3.73;;
27893;SDS011;15240;50.812;4.792;2023-05-24T06:50:06;15.60;;;3.47;;
27893;SDS011;15240;50.812;4.792;2023-05-24T06:53:16;12.15;;;3.60;;
27893;SDS011;15240;50.812;4.792;2023-05-24T06:56:33;15.13;;;3.60;;
27893;SDS011;15240;50.812;4.792;2023-05-24T06:59:23;11.68;;;3.50;;
27893;SDS011;15240;50.812;4.792;2023-05-24T07:02:28;13.32;;;4.22;;
27893;SDS011;15240;50.812;4.792;2023-05-24T07:05:38;15.35;;;3.60;;
27893;SDS011;15240;50.812;4.792;2023-05-24T07:08:34;15.00;;;3.22;;
27893;SDS011;15240;50.812;4.792;2023-05-24T07:11:32;14.73;;;3.65;;
27893;SDS011;15240;50.812;4.792;2023-05-24T07:14:44;16.70;;;3.97;;
27893;SDS011;15240;50.812;4.792;2023-05-24T07:17:31;11.57;;;3.10;;
27893;SDS011;15240;50.812;4.792;2023-05-24T07:26:51;12.32;;;3.53;;
27893;SDS011;15240;50.812;4.792;2023-05-24T07:30:15;14.05;;;3.58;;
27893;SDS011;15240;50.812;4.792;2023-05-24T07:33:15;11.77;;;3.17;;
27893;SDS011;15240;50.812;4.792;2023-05-24T07:36:20;15.20;;;3.60;;
27893;SDS011;15240;50.812;4.792;2023-05-24T07:39:17;12.03;;;3.93;;
27893;SDS011;15240;50.812;4.792;2023-05-24T07:42:25;13.53;;;3.13;;
27893;SDS011;15240;50.812;4.792;2023-05-24T07:44:51;11.83;;;3.63;;
27893;SDS011;15240;50.812;4.792;2023-05-24T07:47:41;16.53;;;3.53;;
27893;SDS011;15240;50.812;4.792;2023-05-24T07:50:30;15.87;;;3.60;;
27893;SDS011;15240;50.812;4.792;2023-05-24T07:53:11;15.37;;;3.73;;
27893;SDS011;15240;50.812;4.792;2023-05-24T07:56:03;13.33;;;3.50;;
27893;SDS011;15240;50.812;4.792;2023-05-24T07:59:17;15.90;;;3.87;;
27893;SDS011;15240;50.812;4.792;2023-05-24T08:01:54;14.50;;;3.73;;
27893;SDS011;15240;50.812;4.792;2023-05-24T08:04:30;15.40;;;4.00;;
27893;SDS011;15240;50.812;4.792;2023-05-24T08:07:05;13.23;;;3.53;;
27893;SDS011;15240;50.812;4.792;2023-05-24T08:10:19;13.40;;;4.13;;
27893;SDS011;15240;50.812;4.792;2023-05-24T08:13:42;14.17;;;3.93;;
27893;SDS011;15240;50.812;4.792;2023-05-24T08:16:53;14.93;;;3.87;;
27893;SDS011;15240;50.812;4.792;2023-05-24T08:20:00;13.03;;;4.07;;
27893;SDS011;15240;50.812;4.792;2023-05-24T08:23:07;18.30;;;3.97;;
27893;SDS011;15240;50.812;4.792;2023-05-24T08:29:27;15.45;;;3.95;;
27893;SDS011;15240;50.812;4.792;2023-05-24T08:32:39;13.35;;;3.65;;
27893;SDS011;15240;50.812;4.792;2023-05-24T08:45:12;13.20;;;3.42;;
27893;SDS011;15240;50.812;4.792;2023-05-24T08:48:16;11.38;;;3.67;;
27893;SDS011;15240;50.812;4.792;2023-05-24T08:51:25;13.48;;;3.63;;
27893;SDS011;15240;50.812;4.792;2023-05-24T09:19:43;13.48;;;3.80;;
27893;SDS011;15240;50.812;4.792;2023-05-24T09:23:06;13.20;;;3.67;;
27893;SDS011;15240;50.812;4.792;2023-05-24T09:26:20;13.95;;;4.20;;
27893;SDS011;15240;50.812;4.792;2023-05-24T09:35:40;16.48;;;4.28;;
27893;SDS011;15240;50.812;4.792;2023-05-24T09:41:52;15.00;;;4.10;;
27893;SDS011;15240;50.812;4.792;2023-05-24T09:47:52;15.02;;;4.28;;
27893;SDS011;15240;50.812;4.792;2023-05-24T09:54:35;15.50;;;4.20;;
27893;SDS011;15240;50.812;4.792;2023-05-24T09:57:43;15.85;;;4.57;;
27893;SDS011;15240;50.812;4.792;2023-05-24T10:01:03;15.90;;;4.72;;
27893;SDS011;15240;50.812;4.792;2023-05-24T10:13:24;11.40;;;4.43;;
27893;SDS011;15240;50.812;4.792;2023-05-24T10:16:28;12.95;;;4.60;;
27893;SDS011;15240;50.812;4.792;2023-05-24T10:19:43;13.70;;;4.45;;
27893;SDS011;15240;50.812;4.792;2023-05-24T10:22:58;13.70;;;4.65;;
27893;SDS011;15240;50.812;4.792;2023-05-24T10:29:16;10.60;;;4.90;;
27893;SDS011;15240;50.812;4.792;2023-05-24T10:32:37;15.97;;;5.40;;
27893;SDS011;15240;50.812;4.792;2023-05-24T10:35:45;13.30;;;5.07;;
27893;SDS011;15240;50.812;4.792;2023-05-24T10:39:07;13.23;;;5.07;;
27893;SDS011;15240;50.812;4.792;2023-05-24T10:41:39;11.73;;;4.83;;
27893;SDS011;15240;50.812;4.792;2023-05-24T10:44:46;12.70;;;4.70;;
27893;SDS011;15240;50.812;4.792;2023-05-24T11:15:45;13.33;;;7.13;;
27893;SDS011;15240;50.812;4.792;2023-05-24T11:25:02;18.67;;;9.10;;
27893;SDS011;15240;50.812;4.792;2023-05-24T11:34:22;16.00;;;9.30;;
27893;SDS011;15240;50.812;4.792;2023-05-24T11:43:21;18.90;;;8.70;;
27893;SDS011;15240;50.812;4.792;2023-05-24T12:23:50;19.13;;;9.57;;
27893;SDS011;15240;50.812;4.792;2023-05-24T12:36:54;20.33;;;10.00;;
27893;SDS011;15240;50.812;4.792;2023-05-24T12:39:59;19.40;;;9.83;;
27893;SDS011;15240;50.812;4.792;2023-05-24T12:43:19;20.13;;;10.07;;
27893;SDS011;15240;50.812;4.792;2023-05-24T12:49:32;26.63;;;10.03;;
27893;SDS011;15240;50.812;4.792;2023-05-24T12:58:46;18.20;;;9.17;;
27893;SDS011;15240;50.812;4.792;2023-05-24T13:02:08;18.37;;;8.90;;
27893;SDS011;15240;50.812;4.792;2023-05-24T13:11:26;17.73;;;8.07;;
27893;SDS011;15240;50.812;4.792;2023-05-24T13:14:38;13.83;;;7.77;;
27893;SDS011;15240;50.812;4.792;2023-05-24T13:23:52;17.40;;;8.37;;
27893;SDS011;15240;50.812;4.792;2023-05-24T13:27:12;17.63;;;6.90;;
27893;SDS011;15240;50.812;4.792;2023-05-24T13:33:28;14.23;;;6.63;;
27893;SDS011;15240;50.812;4.792;2023-05-24T13:43:20;20.47;;;6.83;;
27893;SDS011;15240;50.812;4.792;2023-05-24T13:52:44;17.73;;;5.93;;
27893;SDS011;15240;50.812;4.792;2023-05-24T13:55:56;19.00;;;6.07;;
27893;SDS011;15240;50.812;4.792;2023-05-24T13:59:03;12.67;;;5.60;;
27893;SDS011;15240;50.812;4.792;2023-05-24T14:08:41;14.97;;;5.73;;
27893;SDS011;15240;50.812;4.792;2023-05-24T14:14:55;16.37;;;6.07;;
27893;SDS011;15240;50.812;4.792;2023-05-24T14:18:18;13.47;;;6.00;;
27893;SDS011;15240;50.812;4.792;2023-05-24T14:21:32;16.67;;;6.00;;
27893;SDS011;15240;50.812;4.792;2023-05-24T14:24:48;17.27;;;6.50;;
27893;SDS011;15240;50.812;4.792;2023-05-24T14:31:27;16.13;;;6.20;;
27893;SDS011;15240;50.812;4.792;2023-05-24T14:34:42;15.77;;;6.10;;
27893;SDS011;15240;50.812;4.792;2023-05-24T14:41:14;16.63;;;6.27;;
27893;SDS011;15240;50.812;4.792;2023-05-24T14:47:47;15.93;;;6.20;;
27893;SDS011;15240;50.812;4.792;2023-05-24T14:54:30;16.77;;;6.23;;
27893;SDS011;15240;50.812;4.792;2023-05-24T15:01:12;13.80;;;5.60;;
27893;SDS011;15240;50.812;4.792;2023-05-24T15:04:28;18.03;;;6.43;;
27893;SDS011;15240;50.812;4.792;2023-05-24T15:10:41;16.50;;;6.03;;
27893;SDS011;15240;50.812;4.792;2023-05-24T15:13:48;19.43;;;5.80;;
27893;SDS011;15240;50.812;4.792;2023-05-24T15:20:20;17.03;;;5.93;;
27893;SDS011;15240;50.812;4.792;2023-05-24T15:23:29;26.83;;;6.07;;
27893;SDS011;15240;50.812;4.792;2023-05-24T15:26:54;20.00;;;6.13;;
27893;SDS011;15240;50.812;4.792;2023-05-24T15:36:12;14.67;;;5.57;;
27893;SDS011;15240;50.812;4.792;2023-05-24T15:39:24;14.57;;;6.33;;
27893;SDS011;15240;50.812;4.792;2023-05-24T15:42:12;18.13;;;6.00;;
27893;SDS011;15240;50.812;4.792;2023-05-24T15:48:31;19.93;;;6.83;;
27893;SDS011;15240;50.812;4.792;2023-05-24T15:54:53;17.07;;;6.27;;
27893;SDS011;15240;50.812;4.792;2023-05-24T15:58:13;16.97;;;7.53;;
27893;SDS011;15240;50.812;4.792;2023-05-24T16:04:27;15.60;;;7.47;;
27893;SDS011;15240;50.812;4.792;2023-05-24T16:07:35;14.13;;;6.93;;
27893;SDS011;15240;50.812;4.792;2023-05-24T16:14:07;14.90;;;7.10;;
27893;SDS011;15240;50.812;4.792;2023-05-24T16:29:42;14.93;;;7.30;;
27893;SDS011;15240;50.812;4.792;2023-05-24T17:47:20;16.60;;;6.20;;
27893;SDS011;15240;50.812;4.792;2023-05-24T17:56:34;15.57;;;5.63;;
27893;SDS011;15240;50.812;4.792;2023-05-24T18:06:05;10.50;;;4.50;;
27893;SDS011;15240;50.812;4.792;2023-05-24T18:09:04;13.23;;;4.23;;
27893;SDS011;15240;50.812;4.792;2023-05-24T18:12:02;14.43;;;4.53;;
27893;SDS011;15240;50.812;4.792;2023-05-24T18:14:35;12.77;;;4.47;;
27893;SDS011;15240;50.812;4.792;2023-05-24T18:17:43;11.80;;;4.60;;
27893;SDS011;15240;50.812;4.792;2023-05-24T18:20:30;11.77;;;4.80;;
27893;SDS011;15240;50.812;4.792;2023-05-24T18:23:19;11.43;;;4.13;;
27893;SDS011;15240;50.812;4.792;2023-05-24T18:26:10;9.53;;;4.10;;
27893;SDS011;15240;50.812;4.792;2023-05-24T18:28:59;11.80;;;4.33;;
27893;SDS011;15240;50.812;4.792;2023-05-24T18:31:29;14.90;;;5.00;;
27893;SDS011;15240;50.812;4.792;2023-05-24T18:34:37;16.90;;;4.07;;
27893;SDS011;15240;50.812;4.792;2023-05-24T18:37:29;15.13;;;4.20;;
27893;SDS011;15240;50.812;4.792;2023-05-24T18:40:43;10.57;;;3.73;;
27893;SDS011;15240;50.812;4.792;2023-05-24T18:43:41;10.40;;;3.80;;
27893;SDS011;15240;50.812;4.792;2023-05-24T18:46:54;11.13;;;4.03;;
27893;SDS011;15240;50.812;4.792;2023-05-24T18:49:41;11.43;;;3.50;;
27893;SDS011;15240;50.812;4.792;2023-05-24T18:52:10;9.17;;;3.37;;
27893;SDS011;15240;50.812;4.792;2023-05-24T18:54:38;10.57;;;3.70;;
27893;SDS011;15240;50.812;4.792;2023-05-24T18:57:07;15.27;;;4.10;;
27893;SDS011;15240;50.812;4.792;2023-05-24T18:59:47;13.30;;;3.80;;
27893;SDS011;15240;50.812;4.792;2023-05-24T19:02:15;12.57;;;4.00;;
27893;SDS011;15240;50.812;4.792;2023-05-24T19:04:48;11.83;;;3.77;;
27893;SDS011;15240;50.812;4.792;2023-05-24T19:07:44;12.97;;;4.13;;
27893;SDS011;15240;50.812;4.792;2023-05-24T19:10:15;13.60;;;3.63;;
27893;SDS011;15240;50.812;4.792;2023-05-24T19:13:22;12.20;;;3.77;;
27893;SDS011;15240;50.812;4.792;2023-05-24T19:15:52;12.07;;;4.03;;
27893;SDS011;15240;50.812;4.792;2023-05-24T19:18:21;9.93;;;4.03;;
27893;SDS011;15240;50.812;4.792;2023-05-24T19:20:48;10.90;;;3.70;;
27893;SDS011;15240;50.812;4.792;2023-05-24T19:23:21;8.87;;;4.00;;
27893;SDS011;15240;50.812;4.792;2023-05-24T19:25:47;13.17;;;4.10;;
27893;SDS011;15240;50.812;4.792;2023-05-24T19:28:14;15.23;;;4.07;;
27893;SDS011;15240;50.812;4.792;2023-05-24T19:30:40;12.47;;;4.20;;
27893;SDS011;15240;50.812;4.792;2023-05-24T19:33:08;11.60;;;4.10;;
27893;SDS011;15240;50.812;4.792;2023-05-24T19:35:36;10.03;;;3.83;;
27893;SDS011;15240;50.812;4.792;2023-05-24T19:38:07;14.57;;;3.97;;
27893;SDS011;15240;50.812;4.792;2023-05-24T19:41:13;13.53;;;4.70;;
27893;SDS011;15240;50.812;4.792;2023-05-24T19:43:45;15.30;;;4.60;;
27893;SDS011;15240;50.812;4.792;2023-05-24T19:46:11;10.90;;;3.97;;
27893;SDS011;15240;50.812;4.792;2023-05-24T19:48:55;9.43;;;4.07;;
27893;SDS011;15240;50.812;4.792;2023-05-24T19:51:24;11.37;;;4.20;;
27893;SDS011;15240;50.812;4.792;2023-05-24T19:53:53;16.10;;;4.70;;
27893;SDS011;15240;50.812;4.792;2023-05-24T19:56:20;13.10;;;4.20;;
27893;SDS011;15240;50.812;4.792;2023-05-24T19:58:53;11.53;;;4.00;;
27893;SDS011;15240;50.812;4.792;2023-05-24T20:01:22;14.67;;;4.20;;
27893;SDS011;15240;50.812;4.792;2023-05-24T20:03:58;12.40;;;4.43;;
27893;SDS011;15240;50.812;4.792;2023-05-24T20:06:27;10.60;;;3.90;;
27893;SDS011;15240;50.812;4.792;2023-05-24T20:08:53;15.53;;;4.37;;
27893;SDS011;15240;50.812;4.792;2023-05-24T20:11:23;14.57;;;4.40;;
27893;SDS011;15240;50.812;4.792;2023-05-24T20:13:50;13.03;;;4.73;;
27893;SDS011;15240;50.812;4.792;2023-05-24T20:16:16;15.33;;;5.50;;
27893;SDS011;15240;50.812;4.792;2023-05-24T20:18:43;12.77;;;6.10;;
27893;SDS011;15240;50.812;4.792;2023-05-24T20:21:10;13.23;;;5.20;;
27893;SDS011;15240;50.812;4.792;2023-05-24T20:23:37;14.90;;;5.50;;
27893;SDS011;15240;50.812;4.792;2023-05-24T20:26:04;18.10;;;5.43;;
27893;SDS011;15240;50.812;4.792;2023-05-24T20:28:31;14.97;;;5.07;;
27893;SDS011;15240;50.812;4.792;2023-05-24T20:30:58;15.60;;;5.07;;
27893;SDS011;15240;50.812;4.792;2023-05-24T20:33:24;15.70;;;5.63;;
27893;SDS011;15240;50.812;4.792;2023-05-24T20:35:50;13.43;;;4.73;;
27893;SDS011;15240;50.812;4.792;2023-05-24T20:38:18;15.87;;;5.23;;
27893;SDS011;15240;50.812;4.792;2023-05-24T20:40:44;13.13;;;4.70;;
27893;SDS011;15240;50.812;4.792;2023-05-24T20:43:10;13.40;;;5.13;;
27893;SDS011;15240;50.812;4.792;2023-05-24T20:45:36;16.00;;;5.57;;
27893;SDS011;15240;50.812;4.792;2023-05-24T20:48:02;14.50;;;5.83;;
27893;SDS011;15240;50.812;4.792;2023-05-24T20:50:29;16.70;;;5.07;;
27893;SDS011;15240;50.812;4.792;2023-05-24T20:52:55;17.53;;;4.97;;
27893;SDS011;15240;50.812;4.792;2023-05-24T20:55:21;18.03;;;5.20;;
27893;SDS011;15240;50.812;4.792;2023-05-24T20:57:47;11.03;;;5.03;;
27893;SDS011;15240;50.812;4.792;2023-05-24T21:00:14;13.07;;;5.17;;
27893;SDS011;15240;50.812;4.792;2023-05-24T21:02:41;14.70;;;4.40;;
27893;SDS011;15240;50.812;4.792;2023-05-24T21:05:07;15.67;;;5.20;;
27893;SDS011;15240;50.812;4.792;2023-05-24T21:07:34;11.27;;;4.57;;
27893;SDS011;15240;50.812;4.792;2023-05-24T21:10:00;12.10;;;4.80;;
27893;SDS011;15240;50.812;4.792;2023-05-24T21:12:28;12.63;;;4.87;;
27893;SDS011;15240;50.812;4.792;2023-05-24T21:14:54;15.60;;;4.70;;
27893;SDS011;15240;50.812;4.792;2023-05-24T21:17:20;16.93;;;5.20;;
27893;SDS011;15240;50.812;4.792;2023-05-24T21:19:47;20.50;;;5.13;;
27893;SDS011;15240;50.812;4.792;2023-05-24T21:22:13;17.37;;;4.90;;
27893;SDS011;15240;50.812;4.792;2023-05-24T21:24:40;13.47;;;5.03;;
27893;SDS011;15240;50.812;4.792;2023-05-24T21:27:06;13.80;;;4.83;;
27893;SDS011;15240;50.812;4.792;2023-05-24T21:29:33;14.63;;;4.87;;
27893;SDS011;15240;50.812;4.792;2023-05-24T21:32:02;14.80;;;5.17;;
27893;SDS011;15240;50.812;4.792;2023-05-24T21:34:29;13.97;;;4.90;;
27893;SDS011;15240;50.812;4.792;2023-05-24T21:36:55;15.73;;;4.90;;
27893;SDS011;15240;50.812;4.792;2023-05-24T21:39:22;17.10;;;5.40;;
27893;SDS011;15240;50.812;4.792;2023-05-24T21:41:48;15.20;;;5.10;;
27893;SDS011;15240;50.812;4.792;2023-05-24T21:44:15;15.20;;;4.93;;
27893;SDS011;15240;50.812;4.792;2023-05-24T21:46:41;16.70;;;5.57;;
27893;SDS011;15240;50.812;4.792;2023-05-24T21:49:11;12.03;;;4.73;;
27893;SDS011;15240;50.812;4.792;2023-05-24T21:51:41;19.80;;;5.40;;
27893;SDS011;15240;50.812;4.792;2023-05-24T21:54:07;14.67;;;5.13;;
27893;SDS011;15240;50.812;4.792;2023-05-24T21:56:33;13.00;;;5.40;;
27893;SDS011;15240;50.812;4.792;2023-05-24T21:59:01;13.77;;;5.03;;
27893;SDS011;15240;50.812;4.792;2023-05-24T22:01:27;16.10;;;5.63;;
27893;SDS011;15240;50.812;4.792;2023-05-24T22:03:53;15.00;;;5.40;;
27893;SDS011;15240;50.812;4.792;2023-05-24T22:06:19;13.47;;;5.50;;
27893;SDS011;15240;50.812;4.792;2023-05-24T22:08:48;14.90;;;5.93;;